Sidell, Florida
Current Conditions -  °F | °C
As of 4:07 PM on Saturday 22 Nov 2014 (Local Time) from KPGD Reporting Station
Overcast Overcast  
Wind Chill: 77°   Ceiling: 3700
Heat Index: 79°   Visibility: 10mi
Dew Point: 67°   Wind: 17mph
Humidity: 71%   Direction: 100°E
Pressure: 30.09"   Gusts: 26mph
Location:  27.215°N, 81.8567°W
Report Text: KPGD 222107Z 10015G23KT 10SM SCT026 BKN037 OVC049 25/19 A3009 RMK AO2 T02500194
Loading
Personal Weather Stations






























Interactive Weather Map New forecast layout! Learn more

10-Day Weather Forecast

Advertisements
Track Severe Weather on mobile